Time;durP1;ratioP1;P1;durP2;ratioP2;P2;SDS_P1;SDS_P2;PMS_P1;PMS_P2;Temp;Humidity;BMP_temperature;BMP_pressure;BME280_temperature;BME280_humidity;BME280_pressure;Samples;Min_cycle;Max_cycle;Signal;HPM_P1;HPM_P2
2021/08/15 00:02:13;;;;;;;;;17.25;13.00;;;;;21.40;56.27;101573.66;4978062;28;45464;-82
2021/08/15 00:04:39;;;;;;;;;15.75;14.50;;;;;21.39;57.29;101572.81;4979214;28;46325;-82
2021/08/15 00:07:04;;;;;;;;;17.50;15.25;;;;;21.30;57.01;101566.25;4962444;28;45887;-82
2021/08/15 00:09:29;;;;;;;;;19.50;17.25;;;;;21.31;57.21;101570.63;4983397;28;45448;-82
2021/08/15 00:11:55;;;;;;;;;22.75;21.00;;;;;21.30;56.25;101574.28;4982414;28;46943;-82
2021/08/15 00:14:20;;;;;;;;;20.75;18.50;;;;;21.32;56.63;101571.50;4963100;28;47522;-82
2021/08/15 00:16:45;;;;;;;;;17.75;16.75;;;;;21.31;56.86;101567.97;4979168;28;45557;-82
2021/08/15 00:19:11;;;;;;;;;20.25;16.75;;;;;21.27;56.70;101566.47;4979019;28;45429;-82
2021/08/15 00:21:37;;;;;;;;;22.25;18.25;;;;;21.28;56.54;101559.31;4996938;28;45305;-84
2021/08/15 00:24:06;;;;;;;;;20.25;19.50;;;;;21.27;57.37;101560.25;4978594;28;45447;-80
2021/08/15 00:26:32;;;;;;;;;20.00;19.50;;;;;21.23;56.81;101552.44;4980197;28;45760;-80
2021/08/15 00:28:58;;;;;;;;;21.50;18.25;;;;;21.24;57.38;101553.28;4979139;28;45585;-80
2021/08/15 00:31:27;;;;;;;;;22.75;19.75;;;;;21.19;57.12;101548.25;4974526;28;45498;-80
2021/08/15 00:33:54;;;;;;;;;19.00;17.50;;;;;21.14;57.58;101551.22;4960978;28;46488;-80
2021/08/15 00:36:19;;;;;;;;;17.00;17.00;;;;;21.09;57.77;101545.31;4979572;28;45655;-80
2021/08/15 00:38:45;;;;;;;;;16.50;15.50;;;;;21.06;58.24;101542.88;4988359;28;45266;-80
2021/08/15 00:41:10;;;;;;;;;37.75;31.75;;;;;21.03;57.82;101548.41;4982093;28;45535;-80
2021/08/15 00:43:35;;;;;;;;;31.25;28.50;;;;;21.00;58.14;101545.91;4982145;28;45227;-80
2021/08/15 00:46:12;;;;;;;;;25.00;20.50;;;;;20.98;58.16;101539.78;4982990;28;45227;-79
2021/08/15 00:48:39;;;;;;;;;19.50;17.25;;;;;20.97;58.07;101541.59;4985317;28;45269;-79
2021/08/15 00:51:04;;;;;;;;;18.75;15.50;;;;;20.95;57.68;101546.19;4983210;28;45491;-79
2021/08/15 00:53:31;;;;;;;;;14.25;11.50;;;;;20.99;58.01;101544.19;4982161;28;45457;-79
2021/08/15 00:56:08;;;;;;;;;16.50;13.50;;;;;20.98;58.22;101545.13;4984320;28;45664;-79
2021/08/15 00:58:34;;;;;;;;;16.25;13.50;;;;;20.94;57.64;101540.97;4982974;28;45222;-79
2021/08/15 01:01:01;;;;;;;;;13.75;13.00;;;;;20.92;58.26;101541.03;4981980;28;45227;-79
2021/08/15 01:03:26;;;;;;;;;14.50;12.50;;;;;20.88;58.03;101535.06;4982711;28;46708;-79
2021/08/15 01:05:52;;;;;;;;;18.00;14.00;;;;;20.86;58.36;101539.66;4981096;28;45388;-80
2021/08/15 01:08:18;;;;;;;;;15.75;13.00;;;;;20.82;58.76;101527.41;4983010;28;45305;-81
2021/08/15 01:10:43;;;;;;;;;12.25;12.25;;;;;20.78;58.92;101524.09;4981946;28;45542;-81
2021/08/15 01:13:10;;;;;;;;;16.75;15.25;;;;;20.78;58.76;101525.91;4981855;28;45460;-81
2021/08/15 01:15:36;;;;;;;;;18.00;16.75;;;;;20.76;59.26;101527.81;4987363;28;45843;-81
2021/08/15 01:18:17;;;;;;;;;28.25;26.50;;;;;20.73;59.21;101528.00;4984610;28;45471;-81
2021/08/15 01:20:42;;;;;;;;;22.75;20.00;;;;;20.69;58.56;101525.53;4981774;28;45579;-81
2021/08/15 01:23:08;;;;;;;;;15.00;14.00;;;;;20.73;58.31;101522.69;4981334;28;46284;-81
2021/08/15 01:25:33;;;;;;;;;17.75;17.00;;;;;20.74;58.14;101514.56;4983052;28;45341;-81
2021/08/15 01:27:59;;;;;;;;;19.00;16.00;;;;;20.79;59.05;101514.28;4982762;28;45243;-81
2021/08/15 04:43:23;;;;;;;;;13.00;12.50;;;;;19.32;64.93;101388.00;5574055;22;45997;-81
2021/08/15 04:45:48;;;;;;;;;10.00;9.00;;;;;19.30;65.22;101389.91;4977918;28;45553;-80
2021/08/15 04:48:15;;;;;;;;;11.50;9.50;;;;;19.29;65.42;101394.38;4978976;28;45406;-79
2021/08/15 04:50:40;;;;;;;;;15.25;11.75;;;;;19.27;65.44;101396.28;4977840;28;45780;-79
2021/08/15 04:53:06;;;;;;;;;13.25;12.75;;;;;19.23;65.08;101390.28;4976408;28;47119;-81
2021/08/15 04:55:31;;;;;;;;;12.75;11.25;;;;;19.24;65.56;101391.13;4969401;28;45673;-81
2021/08/15 04:57:57;;;;;;;;;10.50;10.00;;;;;19.25;64.87;101392.00;4971034;28;45991;-81
2021/08/15 05:00:22;;;;;;;;;15.00;12.00;;;;;19.27;64.86;101398.94;4975333;28;45616;-81
2021/08/15 05:02:47;;;;;;;;;13.25;12.75;;;;;19.31;65.14;101392.47;4978166;28;45450;-80
2021/08/15 05:05:13;;;;;;;;;12.25;11.25;;;;;19.36;65.22;101399.34;4977404;28;45455;-80
2021/08/15 05:07:38;;;;;;;;;15.50;12.00;;;;;19.34;65.29;101397.63;4978444;28;45382;-79
2021/08/15 05:10:04;;;;;;;;;11.00;10.00;;;;;19.32;65.34;101388.00;4978854;28;45474;-79
2021/08/15 05:12:29;;;;;;;;;11.75;8.50;;;;;19.32;65.47;101396.88;4978273;28;45518;-79
2021/08/15 05:14:55;;;;;;;;;13.50;11.75;;;;;19.31;65.60;101400.47;4969199;28;46253;-79
2021/08/15 05:17:20;;;;;;;;;12.50;12.00;;;;;19.29;65.99;101399.72;4973445;28;45521;-81
2021/08/15 05:19:45;;;;;;;;;13.75;12.50;;;;;19.27;65.77;101395.41;4975939;28;45484;-80
2021/08/15 05:22:11;;;;;;;;;17.25;14.25;;;;;19.29;65.88;101401.50;4975951;28;45673;-80
2021/08/15 05:24:36;;;;;;;;;11.75;10.25;;;;;19.28;65.99;101392.69;4981149;28;46180;-79
2021/08/15 05:27:02;;;;;;;;;13.25;12.00;;;;;19.29;66.11;101394.38;4979050;28;45434;-79
2021/08/15 05:29:27;;;;;;;;;18.75;12.50;;;;;19.29;66.28;101397.03;4980810;28;45303;-79
2021/08/15 05:31:52;;;;;;;;;14.25;11.25;;;;;19.30;66.71;101395.25;4982305;28;45269;-79
2021/08/15 05:34:18;;;;;;;;;12.50;10.50;;;;;19.30;66.47;101396.09;4981117;28;45411;-79
2021/08/15 05:36:43;;;;;;;;;10.25;9.00;;;;;19.30;66.24;101390.78;4982064;28;45318;-81
2021/08/15 05:39:08;;;;;;;;;13.75;11.00;;;;;19.33;66.87;101392.41;4982500;28;45550;-81
2021/08/15 05:41:34;;;;;;;;;14.25;10.00;;;;;19.34;66.24;101392.28;4979224;28;45518;-81
2021/08/15 05:43:59;;;;;;;;;14.50;12.75;;;;;19.35;66.49;101387.81;4989528;28;45453;-81
2021/08/15 05:46:24;;;;;;;;;14.50;12.50;;;;;19.38;66.75;101382.31;5002159;28;45199;-80
2021/08/15 05:48:50;;;;;;;;;11.75;11.75;;;;;19.43;66.30;101374.03;4982220;28;45491;-79
2021/08/15 05:51:15;;;;;;;;;14.50;13.00;;;;;19.43;66.38;101372.22;5001079;28;45872;-79
2021/08/15 05:53:40;;;;;;;;;14.25;12.50;;;;;19.49;66.25;101375.47;5000531;28;45621;-80
2021/08/15 05:56:05;;;;;;;;;11.50;11.00;;;;;19.49;66.37;101373.66;5001164;28;45312;-79
2021/08/15 05:58:31;;;;;;;;;8.00;6.50;;;;;19.52;66.29;101378.81;5001327;28;45246;-79
2021/08/15 06:00:56;;;;;;;;;13.75;10.25;;;;;19.56;64.99;101385.66;5000593;28;45320;-80
2021/08/15 06:03:22;;;;;;;;;12.50;10.00;;;;;19.64;65.28;101377.19;4983791;28;48192;-80
2021/08/15 06:05:47;;;;;;;;;13.00;9.50;;;;;19.71;64.69;101390.13;4982622;28;45581;-80
2021/08/15 06:08:14;;;;;;;;;12.25;12.25;;;;;19.78;64.29;101391.47;4983641;28;45578;-80
2021/08/15 06:10:39;;;;;;;;;9.50;9.25;;;;;19.89;63.77;101393.47;5000520;28;45555;-79
2021/08/15 06:13:05;;;;;;;;;8.25;8.25;;;;;19.99;63.85;101402.63;5000667;28;45593;-79
2021/08/15 06:15:30;;;;;;;;;11.75;10.25;;;;;20.07;63.95;101390.63;5000649;28;45872;-79
2021/08/15 06:17:56;;;;;;;;;10.50;9.50;;;;;20.11;63.25;101389.47;5001693;28;45658;-78
2021/08/15 06:20:21;;;;;;;;;12.50;10.00;;;;;20.20;63.57;101386.22;4999908;28;45579;-78
2021/08/15 06:22:46;;;;;;;;;12.75;9.00;;;;;20.29;62.36;101386.59;4982886;28;48154;-78
2021/08/15 06:25:14;;;;;;;;;9.50;9.50;;;;;20.35;62.92;101383.53;5001217;28;45276;-78
2021/08/15 06:27:49;;;;;;;;;12.50;10.00;;;;;20.42;61.88;101384.84;4982823;28;45266;-79
2021/08/15 06:30:17;;;;;;;;;9.00;8.50;;;;;20.53;61.85;101385.97;4999066;28;45204;-84
2021/08/15 06:32:45;;;;;;;;;10.50;8.25;;;;;20.60;61.75;101395.28;5001258;28;45352;-78
2021/08/15 06:35:10;;;;;;;;;8.75;7.75;;;;;20.66;60.97;101389.53;4999585;28;45540;-78
2021/08/15 06:37:36;;;;;;;;;8.50;7.75;;;;;20.74;60.76;101391.69;5001403;28;45285;-79
2021/08/15 06:40:01;;;;;;;;;9.50;9.50;;;;;20.79;60.94;101388.75;5000224;28;45316;-78
2021/08/15 06:42:26;;;;;;;;;12.00;12.00;;;;;20.90;60.61;101390.66;5000298;28;45601;-79
2021/08/15 06:44:52;;;;;;;;;13.00;11.00;;;;;20.95;60.27;101387.69;4999997;28;45413;-76
2021/08/15 06:47:17;;;;;;;;;12.25;10.75;;;;;21.03;60.48;101385.41;5000210;28;45605;-76
2021/08/15 06:49:42;;;;;;;;;11.50;9.50;;;;;21.08;60.71;101383.28;4998671;28;45217;-76
2021/08/15 06:52:08;;;;;;;;;9.00;8.50;;;;;21.12;61.16;101383.91;4999523;28;46427;-79
2021/08/15 06:54:33;;;;;;;;;13.00;9.75;;;;;21.14;60.44;101377.50;5000464;28;45283;-81
2021/08/15 06:56:58;;;;;;;;;12.75;9.75;;;;;21.22;59.85;101374.31;5001265;28;45222;-80
2021/08/15 06:59:23;;;;;;;;;10.00;8.50;;;;;21.30;59.77;101373.78;4999936;28;45343;-80
2021/08/15 07:01:49;;;;;;;;;12.00;10.00;;;;;21.38;59.39;101367.91;4982777;28;46267;-81
2021/08/15 07:04:14;;;;;;;;;10.25;8.00;;;;;21.46;59.67;101370.88;4998175;28;45388;-81
2021/08/15 07:06:39;;;;;;;;;12.25;10.50;;;;;21.53;59.40;101376.66;5000998;28;45273;-79
2021/08/15 07:09:05;;;;;;;;;12.75;11.25;;;;;21.61;59.43;101378.78;5000260;28;45202;-79
2021/08/15 07:11:30;;;;;;;;;12.00;10.00;;;;;21.69;59.20;101376.44;5000310;28;45427;-76
2021/08/15 07:13:55;;;;;;;;;15.00;10.50;;;;;21.74;58.51;101376.13;4998031;28;45491;-75
2021/08/15 07:16:21;;;;;;;;;11.25;8.25;;;;;21.80;58.59;101377.50;4999210;28;45333;-75
2021/08/15 07:18:46;;;;;;;;;10.50;9.00;;;;;21.83;58.81;101376.44;4981667;28;47020;-77
2021/08/15 07:21:11;;;;;;;;;10.00;10.00;;;;;21.90;58.37;101385.78;4981650;28;47120;-75
2021/08/15 07:23:37;;;;;;;;;11.75;11.00;;;;;21.96;58.47;101382.66;4981899;28;45449;-76
2021/08/15 07:26:02;;;;;;;;;16.50;12.00;;;;;22.02;58.09;101386.72;4999637;28;45535;-75
2021/08/15 07:28:28;;;;;;;;;12.00;8.50;;;;;22.08;58.84;101385.38;4999248;28;45514;-75
2021/08/15 07:30:54;;;;;;;;;8.75;8.00;;;;;22.13;58.04;101377.88;4999858;28;46427;-75
2021/08/15 07:33:19;;;;;;;;;13.00;11.75;;;;;22.21;58.31;101385.38;4998826;28;46013;-75
2021/08/15 07:35:44;;;;;;;;;10.00;8.25;;;;;22.25;57.93;101377.00;4969006;28;45652;-75
2021/08/15 07:38:10;;;;;;;;;11.75;11.00;;;;;22.35;58.12;101381.66;4982348;28;46207;-75
2021/08/15 07:40:35;;;;;;;;;12.75;10.00;;;;;22.42;57.40;101379.41;4999078;28;46060;-75
2021/08/15 07:43:00;;;;;;;;;11.00;11.00;;;;;22.47;57.48;101380.75;4981794;28;45730;-75
2021/08/15 07:45:29;;;;;;;;;8.75;8.00;;;;;22.55;57.49;101382.88;4998114;28;45288;-75
2021/08/15 07:47:55;;;;;;;;;12.25;11.50;;;;;22.61;57.12;101384.25;4998618;28;45249;-75
2021/08/15 07:50:21;;;;;;;;;9.50;7.50;;;;;22.67;57.15;101375.75;4981227;28;47981;-75
2021/08/15 07:52:47;;;;;;;;;10.50;9.00;;;;;22.74;57.00;101378.00;4999444;28;45410;-75
2021/08/15 07:55:12;;;;;;;;;13.00;11.00;;;;;22.80;56.30;101380.22;4999113;28;45264;-75
2021/08/15 07:57:38;;;;;;;;;10.25;10.00;;;;;22.86;56.55;101378.91;4999432;28;45462;-75
2021/08/15 08:00:05;;;;;;;;;11.25;10.00;;;;;22.92;56.46;101373.94;4999846;28;46262;-75
2021/08/15 08:02:31;;;;;;;;;15.50;11.00;;;;;22.97;56.11;101375.41;4999934;28;45234;-75
2021/08/15 08:04:56;;;;;;;;;9.75;9.00;;;;;23.02;55.98;101374.09;4973334;28;45420;-75
2021/08/15 08:07:24;;;;;;;;;8.00;8.00;;;;;23.09;56.37;101382.50;4996252;28;46347;-75
2021/08/15 08:09:50;;;;;;;;;10.50;9.00;;;;;23.15;55.84;101379.38;4999521;28;45342;-75
2021/08/15 08:12:17;;;;;;;;;14.00;10.25;;;;;23.21;55.99;101371.81;4999486;28;45300;-75
2021/08/15 08:14:43;;;;;;;;;11.00;9.25;;;;;23.26;55.54;101369.66;4997475;28;45498;-75
2021/08/15 08:17:12;;;;;;;;;10.50;10.50;;;;;23.32;55.56;101376.34;4981135;28;47243;-75
2021/08/15 08:19:37;;;;;;;;;9.50;9.50;;;;;23.36;55.53;101369.78;4990352;28;45340;-75
2021/08/15 08:22:03;;;;;;;;;12.50;11.50;;;;;23.40;55.35;101365.00;4998373;28;45218;-75
2021/08/15 08:24:28;;;;;;;;;11.00;10.00;;;;;23.46;55.30;101353.78;4995304;28;45262;-75
2021/08/15 08:26:54;;;;;;;;;11.75;10.00;;;;;23.51;55.15;101357.00;4981681;28;46117;-75
2021/08/15 08:29:19;;;;;;;;;10.00;8.75;;;;;23.55;54.82;101365.66;4999468;28;45210;-75
2021/08/15 08:31:44;;;;;;;;;12.50;10.25;;;;;23.58;54.76;101360.91;4999039;28;45286;-75
2021/08/15 08:34:10;;;;;;;;;9.00;9.00;;;;;23.60;54.92;101350.94;4999036;28;45326;-74
2021/08/15 08:36:35;;;;;;;;;10.75;9.75;;;;;23.63;54.74;101357.03;4981706;28;47190;-75
2021/08/15 08:39:00;;;;;;;;;10.50;9.50;;;;;23.64;55.01;101356.88;4999479;28;46632;-75
2021/08/15 08:41:27;;;;;;;;;10.25;9.25;;;;;23.63;54.84;101359.69;4999301;28;45415;-76
2021/08/15 08:43:53;;;;;;;;;9.50;8.50;;;;;23.56;54.63;101359.31;4998686;28;45310;-75
2021/08/15 08:46:19;;;;;;;;;11.00;9.00;;;;;23.54;55.00;101355.91;4998623;28;45326;-74
2021/08/15 08:48:44;;;;;;;;;11.75;11.75;;;;;23.52;54.92;101355.19;4998703;28;45545;-75
2021/08/15 08:51:10;;;;;;;;;11.50;9.50;;;;;23.55;54.85;101352.25;4998890;28;45431;-75
2021/08/15 08:53:36;;;;;;;;;12.50;11.00;;;;;23.60;54.82;101353.59;4999373;28;45358;-74
2021/08/15 08:56:02;;;;;;;;;12.75;10.50;;;;;23.59;54.70;101349.22;4981773;28;46139;-75
2021/08/15 08:58:28;;;;;;;;;13.00;11.00;;;;;23.64;55.33;101351.53;4998943;28;45405;-75
2021/08/15 09:00:53;;;;;;;;;13.75;11.25;;;;;23.68;55.04;101355.66;5002858;28;45351;-75
2021/08/15 09:03:18;;;;;;;;;12.50;9.00;;;;;23.66;54.83;101348.69;5002802;28;45502;-74
2021/08/15 09:05:55;;;;;;;;;12.75;8.25;;;;;23.66;55.11;101349.56;5002139;28;45459;-74
2021/08/15 09:08:33;;;;;;;;;11.00;8.50;;;;;23.71;55.13;101338.47;5000513;28;45540;-75
2021/08/15 09:11:13;;;;;;;;;13.00;11.75;;;;;23.78;55.39;101344.22;5002298;28;45557;-75
2021/08/15 09:13:38;;;;;;;;;10.75;9.75;;;;;23.81;54.98;101338.56;5001707;28;45490;-75
2021/08/15 09:16:04;;;;;;;;;10.50;10.50;;;;;23.85;54.67;101337.38;5002204;28;45279;-74
2021/08/15 09:18:30;;;;;;;;;14.25;12.75;;;;;23.91;55.26;101344.91;5002259;28;46442;-74
2021/08/15 09:20:56;;;;;;;;;15.75;13.25;;;;;23.96;56.16;101336.47;5002061;28;45478;-75
2021/08/15 09:23:30;;;;;;;;;13.50;11.50;;;;;24.05;55.60;101341.09;5002536;28;45346;-75
2021/08/15 09:26:28;;;;;;;;;13.25;12.25;;;;;24.15;56.33;101333.13;5001836;28;45238;-74
2021/08/15 09:28:53;;;;;;;;;11.75;9.50;;;;;24.25;55.43;101325.22;4962037;28;47485;-74
2021/08/15 09:31:32;;;;;;;;;8.50;8.00;;;;;24.35;55.46;101327.13;5002167;28;45291;-75
2021/08/15 09:34:00;;;;;;;;;15.00;12.50;;;;;24.44;55.50;101326.38;5002535;28;45305;-75
2021/08/15 09:36:26;;;;;;;;;15.25;13.00;;;;;24.52;55.12;101322.19;5001419;28;45375;-75
2021/08/15 09:38:55;;;;;;;;;15.25;12.00;;;;;24.58;54.96;101321.66;4984438;28;47399;-76
2021/08/15 09:41:23;;;;;;;;;16.25;14.50;;;;;24.63;54.77;101314.06;4984308;28;45518;-75
2021/08/15 09:43:48;;;;;;;;;14.25;13.00;;;;;24.66;54.66;101310.28;5001897;28;45539;-75
2021/08/15 09:46:14;;;;;;;;;14.50;12.50;;;;;24.70;54.88;101307.19;5001186;28;45451;-75
2021/08/15 09:48:41;;;;;;;;;15.75;13.25;;;;;24.75;55.04;101311.31;5002154;28;46795;-75
2021/08/15 09:51:10;;;;;;;;;16.50;15.50;;;;;24.79;55.59;101299.34;5001216;28;45476;-75
2021/08/15 09:53:38;;;;;;;;;17.00;14.75;;;;;24.89;55.79;101302.09;4984431;28;45371;-74
2021/08/15 09:56:04;;;;;;;;;13.50;12.50;;;;;24.95;55.26;101302.41;4983294;28;46162;-75
2021/08/15 09:58:30;;;;;;;;;13.50;12.25;;;;;25.01;55.45;101301.06;4996831;28;46112;-74
2021/08/15 10:00:56;;;;;;;;;16.25;13.75;;;;;25.07;55.31;101299.66;5001347;28;45329;-75
2021/08/15 10:03:22;;;;;;;;;15.25;14.50;;;;;25.13;55.39;101304.53;4996184;28;45273;-75
2021/08/15 10:05:48;;;;;;;;;16.00;13.50;;;;;25.19;55.25;101299.59;5001610;28;45313;-75
2021/08/15 10:08:13;;;;;;;;;15.00;13.50;;;;;25.23;55.20;101292.97;5001197;28;45541;-75
2021/08/15 10:10:39;;;;;;;;;21.25;16.00;;;;;25.28;54.92;101302.34;4983039;28;45320;-75
2021/08/15 10:13:06;;;;;;;;;17.25;15.25;;;;;25.32;55.03;101297.53;4983899;28;45373;-75
2021/08/15 10:15:34;;;;;;;;;15.75;14.75;;;;;25.39;55.32;101298.69;5001595;28;45433;-75
2021/08/15 10:18:03;;;;;;;;;14.50;13.50;;;;;25.46;55.44;101287.41;5001688;28;46332;-75
2021/08/15 10:20:30;;;;;;;;;16.25;15.25;;;;;25.51;55.40;101291.38;4996250;28;45616;-75
2021/08/15 10:23:07;;;;;;;;;18.00;16.00;;;;;25.58;54.24;101288.97;4984067;28;45365;-75
2021/08/15 10:25:41;;;;;;;;;16.25;16.25;;;;;25.61;54.40;101272.56;5001481;28;45451;-75
2021/08/15 10:28:27;;;;;;;;;13.25;12.25;;;;;25.66;55.13;101274.84;4982751;28;47141;-75
2021/08/15 10:30:54;;;;;;;;;11.00;11.00;;;;;25.73;54.52;101276.00;4973280;28;45290;-75
2021/08/15 10:33:20;;;;;;;;;17.00;15.25;;;;;25.77;53.78;101273.91;5001730;28;45351;-75
2021/08/15 10:36:15;;;;;;;;;19.25;14.50;;;;;25.84;53.58;101268.81;5000776;28;45408;-75
2021/08/15 10:38:40;;;;;;;;;13.00;12.00;;;;;25.85;53.46;101255.22;4999128;28;45737;-75
2021/08/15 10:41:05;;;;;;;;;11.25;9.00;;;;;25.90;52.76;101253.97;5000996;28;45676;-75
2021/08/15 10:43:31;;;;;;;;;13.25;12.25;;;;;25.94;52.98;101258.06;5000280;28;45373;-75
2021/08/15 10:46:15;;;;;;;;;12.75;10.50;;;;;26.01;52.52;101256.50;5000216;28;45296;-75
2021/08/15 10:48:59;;;;;;;;;13.25;12.50;;;;;26.07;53.44;101247.03;5000835;28;46222;-75
2021/08/15 10:51:50;;;;;;;;;16.00;12.00;;;;;26.14;51.74;101248.16;5000498;28;45273;-75
2021/08/15 10:54:28;;;;;;;;;13.75;13.00;;;;;26.25;52.11;101249.00;4982842;28;45389;-75
2021/08/15 10:56:59;;;;;;;;;11.75;11.75;;;;;26.29;52.16;101239.66;5000220;28;45444;-75
2021/08/15 10:59:33;;;;;;;;;11.00;10.00;;;;;26.18;51.34;101240.63;5000237;28;46368;-75
2021/08/15 11:02:16;;;;;;;;;12.50;11.00;;;;;26.15;50.85;101240.94;4999953;28;45321;-75
2021/08/15 11:04:57;;;;;;;;;12.00;10.50;;;;;26.17;50.84;101230.88;5000184;28;45339;-75
2021/08/15 11:07:36;;;;;;;;;12.00;11.00;;;;;26.23;51.33;101234.81;5000435;28;45545;-75
2021/08/15 11:10:04;;;;;;;;;12.75;10.75;;;;;26.14;49.27;101229.31;5000021;28;45469;-75
2021/08/15 11:12:29;;;;;;;;;10.00;10.00;;;;;26.09;50.48;101228.88;5000198;28;45329;-75
2021/08/15 11:15:07;;;;;;;;;11.75;10.00;;;;;26.02;49.03;101227.75;5000820;28;45355;-75
2021/08/15 11:17:34;;;;;;;;;11.00;8.50;;;;;26.03;49.39;101222.22;5000572;28;45459;-75
2021/08/15 11:20:41;;;;;;;;;10.00;10.00;;;;;26.01;50.14;101220.66;4982395;28;48447;-75
2021/08/15 11:23:10;;;;;;;;;14.00;11.50;;;;;25.83;50.35;101214.13;4999571;28;45317;-75
2021/08/15 11:25:35;;;;;;;;;9.75;9.75;;;;;25.56;50.81;101218.28;5000485;28;45325;-75
2021/08/15 11:28:02;;;;;;;;;14.00;11.25;;;;;25.39;50.61;101211.75;4999659;28;45391;-75
2021/08/15 11:30:27;;;;;;;;;11.25;10.50;;;;;25.25;50.92;101218.38;4999324;28;45214;-75
2021/08/15 11:32:55;;;;;;;;;10.50;10.50;;;;;25.25;51.47;101211.16;4997263;28;45660;-75
2021/08/15 11:35:21;;;;;;;;;10.25;10.25;;;;;25.36;51.23;101212.03;4998095;28;45572;-75
2021/08/15 11:37:52;;;;;;;;;14.00;10.25;;;;;25.33;51.46;101207.78;4998845;28;45372;-75
2021/08/15 11:40:21;;;;;;;;;11.25;10.50;;;;;25.37;51.03;101206.50;5000355;28;45441;-75
2021/08/15 11:43:08;;;;;;;;;14.00;12.00;;;;;25.47;51.37;101209.22;4999718;28;45289;-75
2021/08/15 11:45:40;;;;;;;;;9.25;8.50;;;;;25.48;51.22;101208.22;5000599;28;45472;-75
2021/08/15 11:48:17;;;;;;;;;12.00;10.50;;;;;25.60;50.59;101208.97;4982516;28;46530;-75
2021/08/15 11:50:48;;;;;;;;;12.25;10.00;;;;;25.73;50.63;101206.03;5000131;28;46388;-75
2021/08/15 11:53:23;;;;;;;;;10.00;9.25;;;;;25.77;50.38;101214.69;4972121;28;45260;-75
2021/08/15 11:55:49;;;;;;;;;14.25;12.25;;;;;25.69;50.75;101206.44;5000333;28;45472;-75
2021/08/15 11:58:15;;;;;;;;;14.50;9.75;;;;;25.58;50.62;101210.09;4999887;28;45427;-75
2021/08/15 12:00:40;;;;;;;;;15.25;10.00;;;;;25.52;50.97;101200.75;4999652;28;46327;-75
2021/08/15 12:03:20;;;;;;;;;7.75;6.75;;;;;25.51;50.89;101202.56;5000034;28;45333;-75
2021/08/15 12:05:56;;;;;;;;;9.50;9.50;;;;;25.48;51.17;101208.22;5000227;28;45372;-75
2021/08/15 12:08:37;;;;;;;;;12.25;9.50;;;;;25.43;50.96;101201.56;4982143;28;46047;-75
2021/08/15 12:11:21;;;;;;;;;15.50;9.50;;;;;25.38;51.09;101197.47;4999835;28;46290;-75
2021/08/15 12:13:46;;;;;;;;;12.50;12.50;;;;;25.47;50.89;101194.91;4999647;28;45513;-75
2021/08/15 12:16:13;;;;;;;;;12.00;10.50;;;;;25.55;50.87;101196.91;4999998;28;45443;-75
2021/08/15 12:18:41;;;;;;;;;8.00;8.00;;;;;25.63;50.96;101194.41;4999811;28;45463;-75
2021/08/15 12:21:23;;;;;;;;;12.75;10.50;;;;;25.74;50.62;101198.81;4995627;28;46476;-75
2021/08/15 12:24:18;;;;;;;;;12.25;11.25;;;;;25.92;50.47;101196.28;4980689;28;45317;-75
2021/08/15 12:27:08;;;;;;;;;11.50;11.50;;;;;25.94;49.99;101201.53;4999980;28;45502;-75
2021/08/15 12:29:42;;;;;;;;;11.25;9.25;;;;;25.89;50.70;101196.56;4992086;28;45234;-75
2021/08/15 12:32:21;;;;;;;;;11.50;11.50;;;;;26.02;49.23;101200.81;4998793;28;46153;-74
2021/08/15 12:34:53;;;;;;;;;9.75;9.00;;;;;26.24;49.49;101188.91;5002227;28;45269;-74
2021/08/15 12:37:24;;;;;;;;;14.75;10.50;;;;;26.42;48.83;101196.25;5003008;28;45463;-75
2021/08/15 12:40:05;;;;;;;;;9.00;8.25;;;;;26.57;49.16;101193.13;5002118;28;45494;-75
2021/08/15 12:42:31;;;;;;;;;12.75;11.25;;;;;26.69;48.82;101194.66;5002306;28;45498;-74
2021/08/15 12:45:00;;;;;;;;;9.25;8.25;;;;;26.82;48.48;101186.22;5002698;28;45284;-74
2021/08/15 12:47:30;;;;;;;;;8.50;8.50;;;;;26.93;48.94;101189.72;5001444;28;45258;-74
2021/08/15 12:50:23;;;;;;;;;10.00;10.00;;;;;27.03;48.28;101184.28;4984763;28;46160;-75
2021/08/15 12:52:52;;;;;;;;;9.75;9.75;;;;;27.11;48.30;101183.53;5001899;28;46441;-75
2021/08/15 12:55:23;;;;;;;;;14.00;11.50;;;;;27.19;48.29;101173.72;5002550;28;45680;-75
2021/08/15 12:58:03;;;;;;;;;7.75;6.50;;;;;27.32;48.27;101180.59;4983819;28;45485;-75
2021/08/15 13:00:40;;;;;;;;;10.75;10.75;;;;;27.42;48.12;101170.59;5002163;28;45270;-74
2021/08/15 13:03:08;;;;;;;;;10.50;10.00;;;;;27.55;47.46;101169.38;4986362;28;46420;-74
2021/08/15 13:05:35;;;;;;;;;12.25;10.50;;;;;27.58;47.27;101158.28;4998799;28;45459;-74
2021/08/15 13:08:02;;;;;;;;;11.50;9.75;;;;;27.60;47.74;101161.69;5002494;28;45396;-74
2021/08/15 13:10:28;;;;;;;;;9.50;9.00;;;;;27.61;46.70;101163.34;5002378;28;46492;-74
2021/08/15 13:12:54;;;;;;;;;12.00;12.00;;;;;27.64;47.02;101146.88;5002092;28;45580;-75
2021/08/15 13:15:20;;;;;;;;;11.00;10.25;;;;;27.70;46.93;101161.59;5002374;28;45270;-74
2021/08/15 13:17:46;;;;;;;;;12.25;12.25;;;;;27.71;46.22;101140.84;5002205;28;45455;-74
2021/08/15 13:20:15;;;;;;;;;10.00;9.50;;;;;27.74;46.84;101144.09;4984449;28;47404;-75
2021/08/15 13:22:41;;;;;;;;;10.75;10.75;;;;;27.79;46.61;101138.25;5002417;28;45432;-74
2021/08/15 13:25:07;;;;;;;;;10.75;10.75;;;;;27.82;46.02;101139.78;5000781;28;45432;-74
2021/08/15 13:27:33;;;;;;;;;8.50;6.50;;;;;27.86;45.69;101139.31;4983916;28;45360;-75
2021/08/15 13:29:58;;;;;;;;;12.75;9.25;;;;;27.91;45.64;101146.09;5001961;28;45365;-74
2021/08/15 13:32:24;;;;;;;;;10.25;8.75;;;;;27.89;45.53;101137.31;5006639;28;46229;-75
2021/08/15 13:34:55;;;;;;;;;15.00;11.25;;;;;27.85;45.87;101136.78;4995307;28;45378;-75
2021/08/15 13:37:25;;;;;;;;;16.50;10.75;;;;;27.85;45.46;101121.41;4983422;28;45295;-74
2021/08/15 13:39:56;;;;;;;;;12.50;11.75;;;;;27.90;46.33;101112.00;4995312;28;45400;-74
2021/08/15 13:42:22;;;;;;;;;10.25;9.50;;;;;27.97;46.17;101113.06;4978223;28;47234;-74
2021/08/15 13:44:49;;;;;;;;;13.00;12.00;;;;;27.97;45.57;101107.66;5000679;28;45689;-74
2021/08/15 13:47:16;;;;;;;;;13.00;9.75;;;;;27.99;45.69;101105.66;5001438;28;45341;-74
2021/08/15 13:49:42;;;;;;;;;14.25;9.50;;;;;28.05;46.07;101109.59;5001473;28;45404;-74
2021/08/15 13:52:07;;;;;;;;;10.25;9.00;;;;;28.07;45.58;101107.56;4983972;28;46977;-74
2021/08/15 13:54:32;;;;;;;;;9.25;9.25;;;;;28.07;45.32;101105.72;5001562;28;45183;-74
2021/08/15 13:56:58;;;;;;;;;9.00;9.00;;;;;28.08;44.56;101099.28;5001260;28;45307;-74
2021/08/15 13:59:23;;;;;;;;;9.75;9.75;;;;;28.10;44.67;101107.25;5001537;28;45360;-74
2021/08/15 14:01:49;;;;;;;;;10.75;10.75;;;;;28.13;44.98;101106.91;5000941;28;45501;-74
2021/08/15 14:04:14;;;;;;;;;9.00;9.00;;;;;28.12;45.63;101104.38;4983909;28;45818;-74
2021/08/15 14:06:40;;;;;;;;;11.50;11.50;;;;;27.94;44.90;101108.84;5001770;28;45277;-74
2021/08/15 14:09:05;;;;;;;;;10.75;9.50;;;;;27.66;45.26;101113.47;4983834;28;46318;-74
2021/08/15 14:11:30;;;;;;;;;9.75;9.50;;;;;27.38;45.85;101104.47;4992391;28;45226;-74
2021/08/15 14:13:56;;;;;;;;;14.00;11.50;;;;;27.19;45.25;101105.41;5001374;28;45309;-74
2021/08/15 14:16:21;;;;;;;;;13.00;11.00;;;;;27.08;46.05;101104.63;5000992;28;45389;-75
2021/08/15 14:18:46;;;;;;;;;9.00;9.00;;;;;26.95;46.41;101091.50;5000682;28;45599;-74
2021/08/15 14:21:12;;;;;;;;;12.00;10.00;;;;;26.92;46.53;101099.88;5001276;28;45378;-74
2021/08/15 14:23:38;;;;;;;;;10.75;9.75;;;;;26.77;46.89;101087.91;5001397;28;45372;-74
2021/08/15 14:26:03;;;;;;;;;8.00;8.00;;;;;26.63;47.22;101087.41;5000576;28;45355;-74
2021/08/15 14:28:28;;;;;;;;;7.75;6.50;;;;;26.65;47.68;101077.31;5000295;28;45415;-74
2021/08/15 14:30:54;;;;;;;;;11.00;10.00;;;;;26.72;48.09;101082.94;5000806;28;45364;-75